METAR AND TAF INFORMATION
METAR FOR LFKF
ADDS - METARS form results

(0520 UTC 20 October 2020)
Data provider http://aviationweather.gov/metar/data/
 
METAR text: LFKF 200500Z AUTO 05003KT 9999 FEW022 10/09 Q1023 NOSIG
Conditions at: LFKF (FIGARI (AUT) , FR) observed 0500 UTC 20 October 2020
Temperature: 10.0°C (50°F)
Dewpoint: 9.0°C (48°F) [RH = 93%]
Pressure (altimeter): 30.21 inches Hg (1023.0 mb)
Winds: from the NE (50 degrees) at 3 MPH (3 knots; 1.5 m/s)
Visibility: 6 or more miles (10+ km)
Ceiling: at least 12,000 feet AGL
Clouds: few clouds at 2200 feet AGL
Weather: no significant weather observed at this time

METAR text: LFKF 200430Z AUTO VRB02KT 9999 FEW022 08/07 Q1023 NOSIG
Conditions at: LFKF (FIGARI (AUT) , FR) observed 0430 UTC 20 October 2020
Temperature: 8.0°C (46°F)
Dewpoint: 7.0°C (45°F) [RH = 93%]
Pressure (altimeter): 30.21 inches Hg (1023.0 mb)
Winds: variable direction winds at 2 MPH (2 knots; 1.0 m/s)
Visibility: 6 or more miles (10+ km)
Ceiling: at least 12,000 feet AGL
Clouds: few clouds at 2200 feet AGL
Weather: no significant weather observed at this time

Forecast for: LFKF (FIGARI (AUT) , FR)
Text: TAF LFKF 200200Z 2003/2103 04006KT CAVOK
Forecast period: 0300 to 0700 UTC 20 October 2020
Forecast type: FROM: standard forecast or significant change
Winds: from the NE (40 degrees) at 7 MPH (6 knots; 3.1 m/s)
Visibility: 6 or more miles (10+ km)
Ceiling: unknown
Clouds: missing
Weather: NSW  (no significant weather)
Text: BECMG 2007/2010 06012KT
Forecast period: 0700 UTC 20 October 2020 to 0300 UTC 21 October 2020
Forecast type: BECOMING: Conditions expected to become as follows by 1000 UTC 20 October 2020
Winds: from the ENE (60 degrees) at 14 MPH (12 knots; 6.2 m/s)
Visibility: 6 or more miles (10+ km)
Ceiling: unknown
Clouds: missing
Weather: NSW  (no significant weather)
Text: TEMPO 2016/2103 06017G30KT BKN020
Forecast period: 1600 UTC 20 October 2020 to 0300 UTC 21 October 2020
Forecast type: TEMPORARY: The following changes expected for less than half the time period
Winds: from the ENE (60 degrees) at 20 MPH (17 knots; 8.7 m/s)
gusting to 34 MPH (30 knots; 15.4 m/s)
Visibility: missing
Ceiling: 2000 feet AGL
Clouds: broken clouds at 2000 feet AGL
Weather: no significant weather forecast for this period

 AIRPORT MAP

 RUNWAY INFORMATION
Runway 05 Runway length 8136 ft Runway width 148 ft
Runway elevation 40 ft Runway displaced threshold 0 ft Runway heading 48
Runway 23 Runway length 8136 ft Runway width 148 ft
Runway elevation 86 ft Runway displaced threshold 0 ft Runway heading 228

 AIRPORT FREQUENCIES
Type ATIS Name FIGARI INF Frequency 118.725 MHZ
Type GND Name FIGARI GND Frequency 121.8 MHZ
Type TWR Name FIGARI TWR Frequency 120.3 MHZ

 AIRPORT NEAR NAVIGATION AIDS
Type VOR-DME Name Figari Frequency 116700 KHZ



Powered by Virtual Airlines Manager [v2.6.2]